Time;durP1;ratioP1;P1;durP2;ratioP2;P2;SDS_P1;SDS_P2;PMS_P1;PMS_P2;Temp;Humidity;BMP_temperature;BMP_pressure;BME280_temperature;BME280_humidity;BME280_pressure;Samples;Min_cycle;Max_cycle;Signal;HPM_P1;HPM_P2
2021/04/18 00:00:54;;;;;;;21.70;9.77;;;7.10;99.90;;;;;;4939642;29;20056;-89
2021/04/18 00:03:21;;;;;;;26.25;9.82;;;7.20;99.90;;;;;;4939909;29;20058;-90
2021/04/18 00:05:47;;;;;;;17.63;10.13;;;7.20;99.90;;;;;;4939713;29;20051;-90
2021/04/18 00:08:14;;;;;;;23.17;9.20;;;7.10;99.90;;;;;;4939803;29;20473;-89
2021/04/18 00:10:41;;;;;;;18.38;10.27;;;7.20;99.90;;;;;;4939716;29;20073;-89
2021/04/18 00:13:09;;;;;;;20.40;9.18;;;7.20;99.90;;;;;;4939483;29;20062;-89
2021/04/18 00:15:39;;;;;;;25.20;9.40;;;7.10;99.90;;;;;;4939450;29;20580;-89
2021/04/18 00:18:06;;;;;;;9.20;5.60;;;7.10;99.90;;;;;;4939618;29;20138;-89
2021/04/18 00:20:32;;;;;;;14.77;6.68;;;7.10;99.90;;;;;;4939917;29;20055;-89
2021/04/18 00:22:59;;;;;;;19.92;7.60;;;7.00;99.90;;;;;;4939314;29;20055;-89
2021/04/18 00:25:25;;;;;;;17.40;8.18;;;7.00;99.90;;;;;;4939191;29;20484;-89
2021/04/18 00:27:52;;;;;;;22.65;8.73;;;7.00;99.90;;;;;;4939439;29;20062;-89
2021/04/18 00:30:20;;;;;;;35.05;12.95;;;7.00;99.90;;;;;;4939276;29;20052;-89
2021/04/18 00:32:47;;;;;;;35.30;15.02;;;7.00;99.90;;;;;;4939454;29;20062;-89
2021/04/18 00:35:15;;;;;;;37.20;14.73;;;7.00;99.90;;;;;;4939124;29;20055;-89
2021/04/18 00:37:42;;;;;;;42.05;15.70;;;7.00;99.90;;;;;;4939076;29;20048;-89
2021/04/18 00:40:10;;;;;;;34.08;14.68;;;7.00;99.90;;;;;;4939503;29;20058;-89
2021/04/18 00:42:36;;;;;;;39.65;13.45;;;7.00;99.90;;;;;;4938999;29;20463;-89
2021/04/18 00:45:03;;;;;;;26.98;10.50;;;7.00;99.90;;;;;;4939149;29;20051;-88
2021/04/18 00:47:30;;;;;;;17.15;7.38;;;7.00;99.90;;;;;;4939136;29;20055;-89
2021/04/18 00:49:58;;;;;;;15.85;7.57;;;6.90;99.90;;;;;;4939113;29;20126;-89
2021/04/18 00:52:24;;;;;;;13.05;6.15;;;6.90;99.90;;;;;;4939107;29;20070;-89
2021/04/18 00:54:51;;;;;;;13.95;5.57;;;6.90;99.90;;;;;;4938995;29;20048;-89
2021/04/18 00:57:18;;;;;;;20.23;7.68;;;6.80;99.90;;;;;;4938779;29;20051;-88
2021/04/18 00:59:45;;;;;;;39.15;12.23;;;6.80;99.90;;;;;;4938754;29;20502;-89
2021/04/18 01:02:11;;;;;;;38.88;11.35;;;6.80;99.90;;;;;;4938672;29;20540;-89
2021/04/18 01:04:38;;;;;;;42.25;13.23;;;6.80;99.90;;;;;;4938882;29;20056;-88
2021/04/18 01:07:06;;;;;;;27.65;12.32;;;6.80;99.90;;;;;;4938102;29;20487;-88
2021/04/18 01:09:32;;;;;;;21.92;9.68;;;6.70;99.90;;;;;;4938400;29;20058;-88
2021/04/18 01:11:59;;;;;;;29.92;10.55;;;6.70;99.90;;;;;;4938698;29;20384;-87
2021/04/18 01:14:26;;;;;;;23.75;8.73;;;6.70;99.90;;;;;;4938779;29;20473;-87
2021/04/18 01:16:52;;;;;;;17.38;8.13;;;6.60;99.90;;;;;;4938213;29;20052;-88
2021/04/18 01:19:19;;;;;;;21.88;9.27;;;6.50;99.90;;;;;;4938458;28;20460;-87
2021/04/18 01:21:47;;;;;;;10.73;6.00;;;6.60;99.90;;;;;;4938983;29;20055;-87
2021/04/18 01:24:13;;;;;;;14.80;5.57;;;6.50;99.90;;;;;;4938556;29;20047;-86
2021/04/18 01:26:40;;;;;;;15.32;7.32;;;6.50;99.90;;;;;;4938488;29;20453;-88
2021/04/18 01:29:06;;;;;;;10.80;5.95;;;6.50;99.90;;;;;;4938672;29;20083;-86
2021/04/18 01:31:33;;;;;;;13.85;5.97;;;6.40;99.90;;;;;;4939209;29;20114;-85
2021/04/18 01:34:00;;;;;;;14.35;5.93;;;6.40;99.90;;;;;;4939419;29;20058;-86
2021/04/18 01:36:26;;;;;;;11.68;5.18;;;6.40;99.90;;;;;;4940142;29;20058;-86
2021/04/18 01:38:54;;;;;;;10.32;4.80;;;6.40;99.90;;;;;;4939658;29;20450;-86
2021/04/18 01:41:21;;;;;;;11.23;6.13;;;6.40;99.90;;;;;;4939760;29;20480;-86
2021/04/18 01:43:48;;;;;;;9.52;4.55;;;6.40;99.90;;;;;;4939400;29;20413;-86
2021/04/18 01:46:14;;;;;;;10.48;5.10;;;6.40;99.90;;;;;;4939064;29;20118;-86
2021/04/18 01:48:41;;;;;;;9.15;4.68;;;6.50;99.90;;;;;;4938885;29;20415;-86
2021/04/18 01:51:09;;;;;;;12.10;5.40;;;6.50;99.90;;;;;;4941208;29;20051;-89
2021/04/18 01:53:36;;;;;;;9.93;4.75;;;;;;;;;;4943640;29;20047;-90
2021/04/18 01:56:05;;;;;;;9.50;4.65;;;6.50;99.90;;;;;;4943049;29;20052;-90
2021/04/18 01:58:32;;;;;;;12.35;5.82;;;6.40;99.90;;;;;;4942270;29;20409;-89
2021/04/18 02:00:59;;;;;;;8.93;5.55;;;6.50;99.90;;;;;;4942507;29;20059;-89
2021/04/18 02:03:26;;;;;;;9.57;5.05;;;;;;;;;;4945521;29;20082;-90
2021/04/18 02:05:53;;;;;;;12.63;5.70;;;;;;;;;;4944037;29;20496;-89
2021/04/18 02:08:21;;;;;;;8.77;5.03;;;6.30;99.90;;;;;;4946522;29;20134;-89
2021/04/18 02:10:48;;;;;;;12.05;6.68;;;;;;;;;;4947414;29;20051;-88
2021/04/18 02:13:16;;;;;;;38.53;14.20;;;;;;;;;;4946626;29;20086;-89
2021/04/18 02:15:43;;;;;;;22.15;9.57;;;;;;;;;;4946311;29;20057;-89
2021/04/18 02:18:11;;;;;;;17.55;6.63;;;6.20;99.90;;;;;;4947999;29;20063;-89
2021/04/18 02:20:39;;;;;;;14.73;5.88;;;6.20;99.90;;;;;;4947460;29;20070;-89
2021/04/18 02:23:08;;;;;;;10.13;5.13;;;6.20;99.90;;;;;;4946669;29;20055;-90
2021/04/18 02:25:47;;;;;;;10.50;4.72;;;6.30;99.90;;;;;;4949289;29;20082;-89
2021/04/18 02:28:13;;;;;;;12.75;5.68;;;6.20;99.90;;;;;;4951289;29;20075;-89
2021/04/18 02:30:41;;;;;;;15.15;6.90;;;;;;;;;;4953821;29;20087;-88
2021/04/18 02:33:08;;;;;;;10.73;5.65;;;6.30;99.90;;;;;;4944357;29;20585;-84
2021/04/18 02:35:35;;;;;;;14.75;6.05;;;;;;;;;;4944212;29;20047;-89
2021/04/18 02:38:02;;;;;;;16.38;8.25;;;6.10;99.90;;;;;;4954056;29;20135;-85
2021/04/18 02:40:28;;;;;;;25.73;8.45;;;6.10;99.90;;;;;;4958744;28;20091;-86
2021/04/18 03:06:32;;;;;;;30.05;11.15;;;6.00;99.90;;;;;;5276027;23;20059;-83
2021/04/18 03:08:59;;;;;;;28.27;10.68;;;6.00;99.90;;;;;;4957178;29;20060;-83
2021/04/18 03:11:26;;;;;;;25.20;10.00;;;6.00;99.90;;;;;;4957492;29;20137;-83
2021/04/18 03:13:52;;;;;;;22.45;9.10;;;5.90;99.90;;;;;;4959452;29;20107;-83
2021/04/18 03:16:19;;;;;;;21.65;8.60;;;5.90;99.90;;;;;;4957670;29;20107;-83
2021/04/18 03:18:45;;;;;;;26.15;8.50;;;5.90;99.90;;;;;;4958297;28;20095;-83
2021/04/18 03:21:12;;;;;;;17.67;7.22;;;5.80;99.90;;;;;;4959491;28;20107;-83
2021/04/18 03:23:40;;;;;;;14.13;6.35;;;5.80;99.90;;;;;;5448145;23;20052;-83
2021/04/18 05:20:41;;;;;;;10.48;5.10;;;5.70;99.90;;;;;;5786978;23;20267;-82
2021/04/18 05:23:08;;;;;;;12.32;6.18;;;5.70;99.90;;;;;;4960867;29;20094;-83
2021/04/18 05:25:35;;;;;;;8.52;4.38;;;5.80;99.90;;;;;;4959481;29;20087;-83
2021/04/18 05:28:01;;;;;;;6.20;4.03;;;5.80;99.90;;;;;;4959367;29;20241;-83
2021/04/18 05:30:28;;;;;;;7.32;3.65;;;5.80;99.90;;;;;;4959340;29;20111;-83
2021/04/18 05:32:54;;;;;;;12.13;4.65;;;5.90;99.90;;;;;;4958759;29;20107;-83
2021/04/18 05:35:21;;;;;;;10.55;5.20;;;5.80;99.90;;;;;;4958202;29;20038;-83
2021/04/18 05:37:48;;;;;;;10.07;4.55;;;5.90;99.90;;;;;;4958978;29;20106;-83
2021/04/18 05:40:15;;;;;;;10.45;4.53;;;5.90;99.90;;;;;;4957590;29;20091;-83
2021/04/18 05:42:42;;;;;;;9.38;4.78;;;5.90;99.90;;;;;;4957127;29;20111;-83
2021/04/18 05:45:09;;;;;;;8.65;4.45;;;5.90;99.90;;;;;;4954999;29;20075;-83
2021/04/18 05:47:36;;;;;;;11.27;4.85;;;5.90;99.90;;;;;;4953238;29;20062;-83
2021/04/18 05:50:03;;;;;;;7.78;4.00;;;6.00;99.90;;;;;;4951878;29;20106;-83
2021/04/18 05:52:30;;;;;;;8.70;4.22;;;6.00;99.90;;;;;;4948903;29;20075;-84
2021/04/18 05:54:57;;;;;;;10.93;4.88;;;6.00;99.90;;;;;;4948420;29;20083;-84
2021/04/18 05:57:24;;;;;;;8.55;4.47;;;6.00;99.90;;;;;;4948277;29;20057;-84
2021/04/18 05:59:50;;;;;;;9.18;4.22;;;6.00;99.90;;;;;;4944922;29;20047;-84
2021/04/18 06:02:17;;;;;;;11.52;5.43;;;6.10;99.90;;;;;;4944092;29;20377;-83
2021/04/18 06:04:43;;;;;;;7.90;4.80;;;6.10;99.90;;;;;;4942897;29;20051;-83
2021/04/18 06:07:10;;;;;;;9.80;4.68;;;6.10;99.90;;;;;;4940863;29;20051;-83
2021/04/18 06:09:36;;;;;;;8.25;3.83;;;6.20;99.90;;;;;;4942513;29;20063;-83
2021/04/18 06:12:05;;;;;;;7.40;4.55;;;6.20;99.90;;;;;;4941826;29;20515;-84
2021/04/18 06:14:31;;;;;;;12.57;5.47;;;6.20;99.90;;;;;;4940342;29;20428;-84
2021/04/18 06:16:58;;;;;;;10.27;4.10;;;6.30;99.90;;;;;;4940978;29;20156;-84
2021/04/18 06:19:24;;;;;;;8.82;4.15;;;6.30;99.90;;;;;;4939556;29;20048;-84
2021/04/18 06:21:51;;;;;;;8.60;4.22;;;6.40;99.90;;;;;;4937830;29;20068;-84
2021/04/18 06:24:17;;;;;;;8.32;4.50;;;6.50;99.90;;;;;;4937658;29;20365;-84
2021/04/18 06:26:44;;;;;;;7.95;4.72;;;6.50;99.90;;;;;;4937811;29;20047;-84
2021/04/18 06:29:11;;;;;;;8.45;4.80;;;6.60;99.90;;;;;;4937290;29;20063;-85
2021/04/18 06:31:38;;;;;;;12.13;4.78;;;6.70;99.90;;;;;;4937549;29;20066;-85
2021/04/18 06:34:05;;;;;;;7.47;4.50;;;6.80;99.90;;;;;;4937221;29;20052;-86
2021/04/18 06:36:32;;;;;;;10.82;5.03;;;6.90;99.90;;;;;;4937410;29;20055;-88
2021/04/18 06:38:58;;;;;;;14.82;5.18;;;7.00;99.90;;;;;;4937392;29;20118;-87
2021/04/18 06:41:25;;;;;;;12.20;5.72;;;7.10;99.90;;;;;;4937409;29;20051;-87
2021/04/18 06:43:52;;;;;;;13.77;5.60;;;7.10;99.90;;;;;;4936785;29;20069;-88
2021/04/18 06:46:20;;;;;;;9.38;4.38;;;7.30;99.90;;;;;;4937089;29;20062;-85
2021/04/18 06:48:46;;;;;;;11.10;4.80;;;7.30;99.90;;;;;;4937608;29;20052;-90
2021/04/18 06:51:13;;;;;;;10.93;5.32;;;7.40;99.90;;;;;;4937737;29;20059;-90
2021/04/18 06:53:39;;;;;;;8.90;5.00;;;7.50;99.90;;;;;;4942503;29;20051;-90
2021/04/18 06:56:07;;;;;;;8.48;5.00;;;7.50;99.90;;;;;;4946297;29;20129;-89
2021/04/18 06:58:33;;;;;;;9.18;5.25;;;7.50;99.90;;;;;;4946196;29;20043;-90
2021/04/18 07:01:00;;;;;;;11.02;5.35;;;7.60;99.90;;;;;;4945348;29;20131;-90
2021/04/18 07:03:28;;;;;;;10.50;5.00;;;7.60;99.90;;;;;;4945783;29;20366;-90
2021/04/18 07:05:56;;;;;;;10.65;4.60;;;7.60;99.90;;;;;;4947578;29;20102;-90
2021/04/18 07:08:24;;;;;;;10.25;4.57;;;7.60;99.90;;;;;;4947231;29;20079;-90
2021/04/18 07:10:51;;;;;;;12.50;5.97;;;7.70;99.90;;;;;;4952066;29;20879;-89
2021/04/18 07:13:19;;;;;;;10.95;4.95;;;7.80;99.90;;;;;;4938226;29;20052;-90
2021/04/18 07:15:46;;;;;;;7.75;4.60;;;7.80;99.90;;;;;;4940886;29;20107;-90
2021/04/18 07:18:14;;;;;;;8.20;4.57;;;8.00;99.90;;;;;;4940746;29;20051;-90
2021/04/18 07:20:55;;;;;;;9.13;4.70;;;8.10;99.90;;;;;;4940288;29;20064;-89
2021/04/18 07:23:26;;;;;;;6.28;4.03;;;8.30;99.90;;;;;;4940387;29;20078;-90
2021/04/18 07:25:52;;;;;;;9.07;4.65;;;8.50;99.90;;;;;;4940402;29;20090;-90
2021/04/18 07:28:23;;;;;;;9.07;5.15;;;9.00;99.90;;;;;;4940140;29;20055;-90
2021/04/18 07:30:50;;;;;;;8.35;4.57;;;9.40;99.90;;;;;;4940109;29;20106;-89
2021/04/18 07:33:17;;;;;;;5.97;4.50;;;10.10;99.90;;;;;;4939673;29;20052;-87
2021/04/18 07:35:44;;;;;;;8.38;4.57;;;10.60;99.90;;;;;;4940123;29;20051;-86
2021/04/18 07:38:20;;;;;;;9.40;4.25;;;10.90;99.90;;;;;;4939574;29;20060;-86
2021/04/18 07:40:47;;;;;;;12.88;5.10;;;11.60;99.90;;;;;;4939560;29;20047;-86
2021/04/18 07:43:15;;;;;;;9.80;4.20;;;12.40;96.20;;;;;;4939809;29;20409;-85
2021/04/18 07:45:45;;;;;;;8.30;4.40;;;12.80;94.30;;;;;;4939557;29;20142;-85
2021/04/18 07:48:12;;;;;;;8.18;3.97;;;12.70;86.70;;;;;;4939681;29;20449;-85
2021/04/18 07:50:39;;;;;;;12.50;4.50;;;12.30;90.80;;;;;;4939779;29;20645;-86
2021/04/18 07:53:07;;;;;;;9.73;5.18;;;11.80;89.50;;;;;;4940060;29;20411;-86
2021/04/18 07:55:35;;;;;;;9.60;4.40;;;11.50;90.00;;;;;;4939856;29;20058;-86
2021/04/18 07:58:01;;;;;;;8.70;4.75;;;11.30;91.20;;;;;;4939824;29;20362;-86
2021/04/18 08:00:28;;;;;;;6.47;4.05;;;11.00;92.80;;;;;;4939708;29;20131;-85
2021/04/18 08:02:55;;;;;;;6.72;4.35;;;10.90;94.70;;;;;;4939658;29;20062;-86
2021/04/18 08:05:24;;;;;;;7.70;4.40;;;10.70;91.90;;;;;;4939533;29;20454;-86
2021/04/18 08:08:01;;;;;;;6.10;3.17;;;10.70;92.60;;;;;;4939611;29;20079;-86
2021/04/18 08:10:28;;;;;;;10.95;4.10;;;10.70;93.10;;;;;;4939612;29;20052;-86
2021/04/18 08:13:06;;;;;;;10.45;5.95;;;10.80;92.90;;;;;;4939398;29;20110;-86
2021/04/18 08:15:33;;;;;;;9.45;4.63;;;10.90;94.80;;;;;;4939636;29;20372;-86
2021/04/18 08:18:04;;;;;;;10.82;4.93;;;10.90;92.60;;;;;;4939078;29;20051;-86
2021/04/18 08:20:33;;;;;;;11.85;4.53;;;10.90;95.30;;;;;;4939401;29;20064;-86
2021/04/18 08:23:05;;;;;;;8.77;4.80;;;10.80;95.40;;;;;;4939731;29;20048;-86
2021/04/18 08:25:32;;;;;;;11.40;5.20;;;10.70;96.10;;;;;;4939006;29;20048;-86
2021/04/18 08:28:04;;;;;;;15.38;5.68;;;10.60;97.40;;;;;;4939686;29;20060;-86
2021/04/18 08:30:31;;;;;;;9.57;5.57;;;10.50;96.40;;;;;;4939570;29;20052;-86
2021/04/18 08:32:58;;;;;;;8.45;4.63;;;10.40;95.10;;;;;;4939211;29;20061;-86
2021/04/18 08:35:25;;;;;;;10.80;5.07;;;10.30;94.20;;;;;;4939258;29;20059;-86
2021/04/18 08:38:19;;;;;;;10.02;5.07;;;10.30;94.50;;;;;;4939282;29;20055;-86
2021/04/18 08:40:46;;;;;;;13.65;5.38;;;10.30;92.00;;;;;;4939006;29;20384;-86
2021/04/18 08:43:20;;;;;;;13.27;5.07;;;10.20;93.90;;;;;;4939391;29;20059;-86
2021/04/18 08:45:47;;;;;;;17.00;5.55;;;10.10;94.90;;;;;;4939159;29;20437;-86
2021/04/18 08:48:14;;;;;;;13.98;5.10;;;10.10;95.90;;;;;;4938975;29;20111;-87
2021/04/18 08:50:52;;;;;;;14.02;5.75;;;10.00;94.70;;;;;;4938050;29;20051;-87
2021/04/18 08:53:19;;;;;;;12.45;5.57;;;10.00;95.10;;;;;;4939428;29;20059;-87
2021/04/18 08:55:53;;;;;;;11.82;6.03;;;10.00;95.60;;;;;;4938655;29;20048;-87
2021/04/18 08:58:36;;;;;;;11.43;5.45;;;10.10;95.70;;;;;;4939072;29;20052;-86
2021/04/18 09:01:06;;;;;;;8.10;4.97;;;10.20;97.40;;;;;;4938910;29;20381;-87
2021/04/18 09:03:33;;;;;;;14.73;5.68;;;10.30;94.60;;;;;;4938510;29;20051;-86
2021/04/18 09:06:04;;;;;;;14.25;6.53;;;10.30;96.10;;;;;;4938693;29;20392;-86
2021/04/18 09:08:33;;;;;;;12.00;6.43;;;10.30;95.20;;;;;;4938498;29;20051;-87
2021/04/18 09:11:03;;;;;;;18.30;7.72;;;10.40;94.50;;;;;;4938627;29;20083;-86
2021/04/18 09:13:30;;;;;;;10.63;5.88;;;10.60;94.50;;;;;;4938571;29;20051;-87
2021/04/18 09:15:57;;;;;;;10.27;5.55;;;10.60;92.50;;;;;;4938277;29;20057;-86
2021/04/18 09:18:24;;;;;;;15.55;6.95;;;10.60;90.00;;;;;;4938196;29;20056;-86
2021/04/18 09:21:14;;;;;;;14.80;6.57;;;10.50;88.70;;;;;;4938231;29;20064;-87
2021/04/18 09:23:57;;;;;;;11.80;6.13;;;10.40;90.40;;;;;;4938457;29;20134;-86
2021/04/18 09:26:24;;;;;;;40.83;6.95;;;10.40;91.70;;;;;;4938696;29;20051;-87
2021/04/18 09:29:10;;;;;;;11.40;7.00;;;10.40;92.10;;;;;;4937185;29;20047;-86
2021/04/18 09:31:52;;;;;;;11.57;6.38;;;10.40;93.10;;;;;;4938056;29;20052;-87
2021/04/18 09:34:20;;;;;;;14.73;7.07;;;10.40;93.20;;;;;;4935916;29;20047;-86
2021/04/18 09:36:46;;;;;;;15.48;6.93;;;10.50;95.60;;;;;;4937989;29;20051;-86
2021/04/18 09:39:13;;;;;;;12.52;6.78;;;10.60;95.20;;;;;;4937888;29;20051;-87
2021/04/18 09:41:40;;;;;;;11.80;7.43;;;10.70;94.30;;;;;;4937959;29;20055;-87
2021/04/18 09:44:08;;;;;;;11.55;7.15;;;10.90;92.80;;;;;;4937733;29;20086;-86
2021/04/18 09:46:42;;;;;;;12.80;7.75;;;11.10;90.40;;;;;;4938074;29;20047;-86
2021/04/18 09:49:09;;;;;;;16.67;9.10;;;11.30;89.00;;;;;;4937951;29;20125;-86
2021/04/18 09:51:50;;;;;;;18.42;8.48;;;11.40;86.00;;;;;;4938152;29;20428;-86
2021/04/18 09:54:26;;;;;;;18.55;9.13;;;11.50;87.40;;;;;;4938057;29;20121;-86
2021/04/18 09:57:13;;;;;;;14.45;7.85;;;11.60;81.70;;;;;;4937851;29;20055;-86
2021/04/18 09:59:40;;;;;;;16.60;9.38;;;11.60;80.90;;;;;;4937947;29;20063;-86
2021/04/18 10:02:14;;;;;;;16.30;7.78;;;11.60;84.20;;;;;;4937575;29;20056;-86
2021/04/18 10:04:41;;;;;;;13.93;8.10;;;11.50;82.40;;;;;;4937562;29;20061;-86
2021/04/18 10:07:08;;;;;;;15.52;7.30;;;11.40;86.40;;;;;;4937623;29;20056;-86
2021/04/18 10:09:51;;;;;;;16.73;8.57;;;11.30;90.40;;;;;;4937762;29;20052;-86
2021/04/18 10:12:18;;;;;;;18.02;9.95;;;11.20;91.40;;;;;;4937740;29;20058;-86
2021/04/18 10:14:44;;;;;;;15.57;7.60;;;11.20;90.30;;;;;;4937592;29;20051;-86
2021/04/18 10:17:11;;;;;;;17.13;8.55;;;11.20;90.60;;;;;;4937355;29;20063;-86
2021/04/18 10:19:50;;;;;;;22.00;8.85;;;11.20;90.20;;;;;;4937539;29;20052;-85
2021/04/18 10:22:17;;;;;;;18.75;10.13;;;11.20;85.00;;;;;;4937592;29;20063;-86
2021/04/18 10:24:45;;;;;;;17.33;9.65;;;11.20;86.90;;;;;;4937182;29;20106;-86
2021/04/18 10:27:12;;;;;;;17.90;7.95;;;11.30;89.40;;;;;;4937281;29;20056;-86
2021/04/18 10:29:39;;;;;;;15.20;8.32;;;11.40;89.10;;;;;;4937194;29;20114;-86
2021/04/18 10:32:06;;;;;;;17.45;8.98;;;11.50;85.50;;;;;;4937161;29;20062;-86
2021/04/18 10:34:33;;;;;;;26.27;9.55;;;11.70;85.20;;;;;;4937590;29;20184;-86
2021/04/18 10:37:00;;;;;;;18.63;9.25;;;11.60;86.60;;;;;;4937443;29;20063;-86
2021/04/18 10:39:27;;;;;;;17.25;10.00;;;11.60;80.30;;;;;;4937455;29;20055;-86
2021/04/18 10:41:54;;;;;;;22.33;9.75;;;11.60;84.10;;;;;;4941075;29;20051;-86
2021/04/18 10:44:21;;;;;;;19.80;10.10;;;11.50;81.30;;;;;;4941077;29;20055;-86
2021/04/18 10:46:49;;;;;;;17.63;9.85;;;11.50;83.20;;;;;;4941397;29;20058;-86
2021/04/18 10:49:15;;;;;;;19.80;9.95;;;11.60;83.80;;;;;;4940770;29;20052;-86
2021/04/18 10:51:42;;;;;;;18.95;10.23;;;11.60;84.20;;;;;;4941443;29;20051;-86
2021/04/18 10:54:09;;;;;;;15.38;8.48;;;11.70;83.00;;;;;;4938568;29;20055;-86
2021/04/18 10:56:36;;;;;;;21.20;9.73;;;11.80;80.80;;;;;;4941174;29;20117;-85
2021/04/18 10:59:03;;;;;;;17.15;9.32;;;11.90;82.40;;;;;;4948771;29;20047;-86
2021/04/18 11:01:31;;;;;;;17.15;9.73;;;12.00;81.70;;;;;;4959907;29;20055;-85
2021/04/18 11:03:57;;;;;;;38.03;11.57;;;12.10;77.10;;;;;;4959696;29;20059;-85
2021/04/18 11:06:24;;;;;;;22.42;11.02;;;12.20;78.60;;;;;;4959988;29;20376;-85
2021/04/18 11:08:51;;;;;;;23.63;12.43;;;12.40;76.20;;;;;;4959741;29;20542;-85
2021/04/18 11:11:19;;;;;;;20.00;12.45;;;12.40;77.20;;;;;;4959573;29;20079;-86
2021/04/18 11:13:46;;;;;;;19.80;11.02;;;12.40;78.00;;;;;;4959623;29;20055;-85
2021/04/18 11:16:13;;;;;;;25.42;12.98;;;12.40;74.10;;;;;;4959717;29;20059;-85
2021/04/18 11:18:40;;;;;;;23.42;12.70;;;12.30;73.40;;;;;;4959588;29;20081;-86
2021/04/18 11:21:06;;;;;;;25.77;12.75;;;12.30;76.10;;;;;;4959215;28;20065;-85
2021/04/18 11:23:33;;;;;;;21.55;12.18;;;12.30;76.00;;;;;;4959695;29;20051;-85
2021/04/18 11:26:00;;;;;;;21.42;11.52;;;12.40;78.20;;;;;;4941034;29;20103;-85
2021/04/18 11:28:28;;;;;;;24.67;13.65;;;12.40;76.00;;;;;;4940581;29;20055;-85
2021/04/18 11:30:54;;;;;;;25.45;13.32;;;12.40;75.90;;;;;;4940085;29;20057;-85
2021/04/18 11:33:22;;;;;;;18.80;11.85;;;12.40;75.00;;;;;;4940238;29;20063;-85
2021/04/18 11:35:49;;;;;;;23.52;12.15;;;12.40;73.60;;;;;;4936951;29;20051;-85
2021/04/18 11:38:16;;;;;;;23.50;12.50;;;12.50;73.60;;;;;;4946833;29;20055;-86
2021/04/18 11:40:42;;;;;;;22.95;12.60;;;12.50;72.00;;;;;;4943694;29;20122;-84
2021/04/18 11:43:09;;;;;;;25.50;13.85;;;12.60;73.10;;;;;;4948133;29;20087;-89
2021/04/18 11:45:38;;;;;;;23.45;12.13;;;12.80;74.20;;;;;;4955160;29;20369;-85
2021/04/18 11:48:06;;;;;;;21.45;11.85;;;13.00;75.20;;;;;;4961574;29;20443;-87
2021/04/18 11:50:33;;;;;;;24.83;13.15;;;13.10;75.20;;;;;;4957989;29;20134;-84
2021/04/18 11:53:00;;;;;;;27.02;13.45;;;13.20;73.40;;;;;;4943147;29;20517;-85
2021/04/18 11:55:29;;;;;;;22.73;14.18;;;13.30;70.20;;;;;;4939316;29;20540;-84
2021/04/18 11:57:56;;;;;;;19.73;12.23;;;13.30;69.60;;;;;;4939894;29;20066;-84
2021/04/18 12:00:23;;;;;;;21.25;12.77;;;13.40;68.70;;;;;;4939680;29;20077;-84
2021/04/18 12:02:50;;;;;;;24.38;12.90;;;13.50;69.40;;;;;;4940836;29;20137;-85
2021/04/18 12:05:18;;;;;;;24.33;13.93;;;13.50;69.20;;;;;;4953547;29;20059;-85
2021/04/18 12:07:45;;;;;;;23.98;14.07;;;13.40;71.00;;;;;;4945750;29;20066;-86
2021/04/18 12:10:11;;;;;;;26.42;15.32;;;13.40;69.90;;;;;;4946368;29;20051;-86
2021/04/18 12:12:40;;;;;;;23.35;14.77;;;13.30;68.00;;;;;;4939658;29;20066;-86
2021/04/18 12:15:09;;;;;;;23.55;13.05;;;13.40;68.90;;;;;;4951245;29;20055;-85
2021/04/18 12:17:38;;;;;;;23.73;14.27;;;13.40;69.40;;;;;;4949377;29;20083;-86
2021/04/18 12:20:08;;;;;;;21.20;13.18;;;13.50;69.70;;;;;;4953761;29;20051;-85
2021/04/18 12:22:35;;;;;;;23.48;13.43;;;13.60;69.70;;;;;;4946385;28;20432;-86
2021/04/18 12:25:06;;;;;;;27.42;17.13;;;13.70;70.20;;;;;;4949018;29;20044;-85
2021/04/18 12:27:37;;;;;;;24.15;14.02;;;13.70;70.40;;;;;;4946030;29;20052;-84
2021/04/18 12:30:09;;;;;;;27.40;14.30;;;13.60;70.90;;;;;;4950178;29;20048;-88
2021/04/18 12:32:37;;;;;;;28.45;13.82;;;13.70;71.60;;;;;;4950403;29;20067;-86
2021/04/18 12:35:07;;;;;;;21.92;14.10;;;13.70;71.20;;;;;;4938830;29;20524;-85
2021/04/18 12:37:36;;;;;;;22.42;14.30;;;13.80;68.60;;;;;;4938739;29;20062;-84
2021/04/18 12:40:03;;;;;;;29.38;15.02;;;13.80;66.70;;;;;;4957636;29;20087;-85
2021/04/18 12:42:32;;;;;;;25.95;14.55;;;13.80;67.10;;;;;;4949874;29;20126;-85
2021/04/18 12:45:06;;;;;;;23.98;14.00;;;13.90;68.40;;;;;;4942738;29;20178;-85
2021/04/18 12:47:33;;;;;;;25.92;14.90;;;13.90;68.30;;;;;;4938528;29;20048;-86
2021/04/18 12:50:05;;;;;;;20.38;13.70;;;13.90;67.00;;;;;;4938561;29;20150;-84
2021/04/18 12:52:32;;;;;;;21.00;14.20;;;13.90;66.40;;;;;;4941853;29;20126;-86
2021/04/18 12:54:59;;;;;;;25.88;15.98;;;13.90;67.40;;;;;;4954606;29;20054;-86
2021/04/18 12:57:30;;;;;;;24.35;13.95;;;14.00;67.60;;;;;;4939971;29;20079;-86
2021/04/18 12:59:57;;;;;;;25.02;15.00;;;14.10;67.10;;;;;;4938773;29;20139;-87
2021/04/18 13:02:25;;;;;;;29.10;15.57;;;14.20;63.90;;;;;;4939087;29;20051;-84
2021/04/18 13:04:57;;;;;;;22.67;14.60;;;14.20;62.80;;;;;;4938716;29;20044;-87
2021/04/18 13:07:28;;;;;;;24.52;14.10;;;14.10;63.40;;;;;;4953942;29;20107;-86
2021/04/18 13:09:57;;;;;;;23.15;14.73;;;14.00;65.30;;;;;;4937743;29;20058;-87
2021/04/18 13:12:24;;;;;;;25.83;15.02;;;14.00;66.20;;;;;;4951321;29;20464;-87
2021/04/18 13:14:53;;;;;;;28.15;14.70;;;14.00;63.90;;;;;;4943270;29;20044;-86
2021/04/18 13:17:20;;;;;;;24.23;14.20;;;13.90;66.10;;;;;;4938864;29;20079;-86
2021/04/18 13:19:49;;;;;;;25.65;14.82;;;14.00;66.90;;;;;;4948773;29;20196;-86
2021/04/18 13:22:16;;;;;;;22.75;12.82;;;14.00;64.30;;;;;;4935236;29;20154;-85
2021/04/18 13:24:47;;;;;;;21.75;14.05;;;14.10;64.80;;;;;;4951987;29;20116;-86
2021/04/18 13:27:14;;;;;;;21.73;15.00;;;14.10;65.50;;;;;;4951555;29;20055;-85
2021/04/18 13:29:41;;;;;;;23.52;14.70;;;14.20;64.40;;;;;;4951209;29;20469;-86
2021/04/18 13:32:08;;;;;;;21.67;14.30;;;14.20;65.80;;;;;;4947647;29;20051;-86
2021/04/18 13:34:40;;;;;;;19.70;13.15;;;14.20;64.30;;;;;;4957278;29;20428;-86
2021/04/18 13:37:08;;;;;;;25.55;14.82;;;14.20;64.30;;;;;;4955682;29;20130;-85
2021/04/18 13:39:35;;;;;;;24.35;15.55;;;14.20;64.20;;;;;;4942653;29;20127;-86
2021/04/18 13:42:03;;;;;;;26.60;15.40;;;14.20;63.70;;;;;;4943117;29;20384;-83
2021/04/18 13:44:30;;;;;;;26.52;15.02;;;14.20;63.60;;;;;;4951050;29;20138;-84
2021/04/18 13:49:48;;;;;;;23.15;13.98;;;14.10;63.00;;;;;;4944857;29;20069;-83
2021/04/18 13:52:20;;;;;;;22.98;14.60;;;14.10;63.80;;;;;;4940265;29;20436;-83
2021/04/18 13:54:50;;;;;;;22.85;14.73;;;14.20;63.20;;;;;;4942273;29;20103;-83
2021/04/18 13:57:27;;;;;;;22.92;15.05;;;14.20;63.00;;;;;;4941955;29;20392;-83
2021/04/18 13:59:56;;;;;;;24.95;15.20;;;14.20;62.80;;;;;;4932499;29;20054;-83
2021/04/18 14:02:27;;;;;;;23.92;14.68;;;14.30;62.60;;;;;;4949238;29;20051;-82
2021/04/18 14:04:55;;;;;;;20.35;13.30;;;14.30;62.30;;;;;;4948175;29;20062;-83
2021/04/18 14:07:22;;;;;;;22.80;13.93;;;14.40;62.00;;;;;;4940211;29;20056;-83
2021/04/18 14:09:53;;;;;;;23.70;14.02;;;14.50;62.00;;;;;;4942893;29;20067;-82
2021/04/18 14:12:25;;;;;;;19.23;12.68;;;14.60;62.10;;;;;;4956461;29;20129;-82
2021/04/18 14:15:01;;;;;;;28.50;16.42;;;14.60;62.60;;;;;;4948503;28;20051;-82
2021/04/18 14:17:31;;;;;;;24.35;14.63;;;14.60;62.30;;;;;;4929398;29;20051;-82
2021/04/18 14:19:58;;;;;;;21.63;13.95;;;14.60;62.80;;;;;;4948671;29;20139;-82
2021/04/18 14:22:26;;;;;;;23.38;15.23;;;14.60;63.70;;;;;;4946948;28;20055;-83
2021/04/18 14:24:55;;;;;;;24.70;15.38;;;14.60;63.40;;;;;;4948679;29;20540;-82
2021/04/18 14:27:23;;;;;;;23.58;14.82;;;14.40;65.40;;;;;;4949871;29;20058;-83
2021/04/18 14:29:53;;;;;;;29.25;15.55;;;14.40;63.60;;;;;;4948137;29;20491;-82
2021/04/18 14:32:23;;;;;;;28.52;15.90;;;14.30;64.10;;;;;;4938303;29;20107;-83
2021/04/18 14:34:51;;;;;;;25.23;16.45;;;14.30;63.80;;;;;;4942037;29;20503;-83
2021/04/18 14:37:17;;;;;;;24.33;15.45;;;14.20;63.70;;;;;;4944653;29;20059;-82
2021/04/18 14:39:44;;;;;;;27.35;15.48;;;14.20;64.40;;;;;;4941447;29;20051;-83
2021/04/18 14:42:11;;;;;;;27.42;15.43;;;14.20;63.50;;;;;;4945050;29;20058;-82
2021/04/18 14:44:38;;;;;;;24.40;16.75;;;14.10;63.90;;;;;;4938007;29;20051;-82
2021/04/18 14:47:05;;;;;;;26.02;15.68;;;14.10;65.60;;;;;;4936954;29;20070;-82
2021/04/18 14:49:31;;;;;;;22.10;15.00;;;14.10;67.30;;;;;;4953043;29;20059;-82
2021/04/18 14:52:00;;;;;;;28.73;14.30;;;14.00;67.40;;;;;;4953282;29;20047;-82
2021/04/18 14:54:26;;;;;;;24.77;15.57;;;14.00;66.90;;;;;;4956062;29;20139;-82
2021/04/18 14:56:53;;;;;;;23.85;14.57;;;14.00;67.70;;;;;;4950093;29;20128;-83
2021/04/18 14:59:20;;;;;;;20.23;13.98;;;14.10;67.00;;;;;;4941856;29;20058;-83
2021/04/18 15:01:47;;;;;;;22.60;14.02;;;14.10;65.10;;;;;;4937143;29;20102;-83
2021/04/18 15:04:14;;;;;;;21.45;14.25;;;14.20;65.70;;;;;;4937012;29;20059;-82
2021/04/18 15:06:41;;;;;;;23.17;14.68;;;14.20;66.00;;;;;;4932368;29;20385;-85